Share

Arctic Village, AK

Arctic Village (PARC) Alt. 2090 ft | 68.11 °N, 145.58 °W | Change Station

Current weather conditions updated 4 minutes ago

Scattered Clouds
Nuages épars
23 ° F
Paraît 15 ° F
N
7
Vent Variable Vent de Est
Lever du soleil 5:40 AM
Coucher du soleil 9:45 PM
Lune Lune gibbeuse décroissante

Aujourd’hui il est prévu de faire plus froid qu’hier. Chutes de neige au cours de l'après-midi..

Pression 29.64 pouce
Visibilité 10.0 Miles terrestres
Nuages Nuages épars 3500 ft
Refroidissement éolien 15 ° F
Point de rosée 9 ° F
Humidité 54%
Précipitations 0.00 pouce
Profondeur de la couche neigeuse Non disponible.
UV 0 sur 16
Pollen Non disponible.
Qualité de l'air Non disponible.
Flu Activity Sporadic
METAR PARC 171236Z AUTO 09006KT 10SM SCT035 M05/M13 A2964 RMK AO1

More Conditions Fewer Conditions

Pression 29.64 pouce
Visibilité 10.0 Miles terrestres
Nuages Nuages épars 3500 ft
Refroidissement éolien 15 ° F
Point de rosée 9 ° F
Humidité 54%
Précipitations 0.00 pouce
Profondeur de la couche neigeuse Non disponible.
UV 0 sur 16
Pollen Non disponible.
Qualité de l'air Non disponible.
Flu Activity Sporadic
METAR PARC 171236Z AUTO 09006KT 10SM SCT035 M05/M13 A2964 RMK AO1

More Conditions Fewer Conditions

10-Day Forecast

Almanac

Astronomie

Apr. 17, 2014 Lever Coucher
Temps réel 05:40 AKDT 21:45 AKDT
Crépuscule civil 04:27 AKDT 23:00 AKDT
Crépuscule nautique 02:14 AKDT 01:09 AKDT
Crépuscule astronomique Sun does not rise Sun does not rise
Lune 00:34 AKDT 06:16 AKDT
Durée de lumière visible 18h 32m
Longueur du jour
16h 04m
Tomorrow will be 8m 26s longer.
Lune gibbeuse décroissante, 94% of the Moon is Illuminated
Aujourd'hui
Lune gibbeuse décroissante
avr 22
Dernier quartier
avr 29
Nouveau
mai 6
Premier quartier
mai 14
Pleine lune

Extrêmes aujourd'hui

State Highs State Lows

Community

  • sunset from izmir, narlıdere
    sunset from izmir, narlıdere
  • Sunset over the Bay
    Sunset over the Bay
  • Sunrise Serenade
    Sunrise Serenade
  • symphony in blue....
    symphony in blue....
  • Dawn Surprise
    Dawn Surprise

WunderPhotos

Upload Photos

1,701,942 Photos téléchargées !

Nearby

Qualité de l'air

Not available.

Épaisseur de neige

Station Depth Altitude
Atigun Pass 37 in 4800 ft
Imnaviat Creek 26 in 3050 ft
Fort Yukon 18 in 430 ft
Coldfoot 27 in 1040 ft
Gobblers Knob 9 in 2030 ft

Températures des eaux côtières

Lieu Température
Aucun rapport de station

Activité sismique

Ville Distance Mag. Time & Date
No recent earthquake activity has been reported nearby.
Minimum magnitude displayed is 2.5.

Stations météo à proximité

Il n'y a aucune station météorologique personnelle dans cette zone.

What do you think?

We're not finished. Please let us know what you like, what you don't like, and what you are still missing.